Time;durP1;ratioP1;P1;durP2;ratioP2;P2;SDS_P1;SDS_P2;PMS_P1;PMS_P2;Temp;Humidity;BMP_temperature;BMP_pressure;BME280_temperature;BME280_humidity;BME280_pressure;Samples;Min_cycle;Max_cycle;Signal;HPM_P1;HPM_P2
2024/03/29 00:01:15;;;;;;;;;;;16.90;52.50;;;;;;5093379;28;19908;-76
2024/03/29 00:03:42;;;;;;;;;;;16.80;52.90;;;;;;5092539;28;20325;-76
2024/03/29 00:06:07;;;;;;;;;;;16.70;52.70;;;;;;5092812;28;20290;-76
2024/03/29 00:08:33;;;;;;;;;;;17.00;52.60;;;;;;5092492;28;19914;-76
2024/03/29 00:10:59;;;;;;;;;;;16.80;52.80;;;;;;5092780;28;19914;-76
2024/03/29 00:13:25;;;;;;;;;;;16.70;52.70;;;;;;5092528;28;19932;-76
2024/03/29 00:15:51;;;;;;;;;;;17.10;53.20;;;;;;5092894;28;20329;-76
2024/03/29 00:18:17;;;;;;;;;;;16.80;53.00;;;;;;5092264;28;20359;-76
2024/03/29 00:20:43;;;;;;;;;;;16.80;53.00;;;;;;5092341;28;20371;-76
2024/03/29 00:23:09;;;;;;;;;;;16.80;52.80;;;;;;5092327;28;19973;-76
2024/03/29 00:25:35;;;;;;;;;;;16.90;53.00;;;;;;5092649;28;20031;-76
2024/03/29 00:28:01;;;;;;;;;;;16.80;53.10;;;;;;5092302;28;20366;-76
2024/03/29 00:30:27;;;;;;;;;;;16.60;52.90;;;;;;5092344;28;20419;-76
2024/03/29 00:32:53;;;;;;;;;;;16.80;53.00;;;;;;5092661;28;19908;-76
2024/03/29 00:35:20;;;;;;;;;;;16.80;53.10;;;;;;5092469;28;19908;-76
2024/03/29 00:37:46;;;;;;;;;;;16.80;52.90;;;;;;5092155;28;19915;-76
2024/03/29 00:40:12;;;;;;;;;;;16.80;53.20;;;;;;5092441;28;19908;-76
2024/03/29 00:42:38;;;;;;;;;;;16.80;53.10;;;;;;5092029;28;20267;-76
2024/03/29 00:45:04;;;;;;;;;;;16.90;53.20;;;;;;5092357;28;19959;-76
2024/03/29 00:47:30;;;;;;;;;;;16.90;52.00;;;;;;5092881;28;19908;-76
2024/03/29 00:49:56;;;;;;;;;;;16.80;53.00;;;;;;5092320;28;19916;-76
2024/03/29 00:52:22;;;;;;;;;;;16.90;53.00;;;;;;5091944;28;20309;-76
2024/03/29 00:54:47;;;;;;;;;;;16.90;53.20;;;;;;5092310;28;19915;-76
2024/03/29 00:57:15;;;;;;;;;;;16.90;53.00;;;;;;5094838;28;19915;-75
2024/03/29 00:59:43;;;;;;;;;;;16.90;53.00;;;;;;5078038;28;19965;-75
2024/03/29 01:02:09;;;;;;;;;;;16.50;52.00;;;;;;5095919;28;19911;-76
2024/03/29 01:04:34;;;;;;;;;;;16.90;53.20;;;;;;5096033;28;20298;-75
2024/03/29 01:07:00;;;;;;;;;;;18.90;54.30;;;;;;5096044;28;20412;-75
2024/03/29 01:09:25;;;;;;;;;;;16.90;52.90;;;;;;5096027;28;19935;-76
2024/03/29 01:11:51;;;;;;;;;;;16.80;53.10;;;;;;5095979;28;20298;-76
2024/03/29 01:14:16;;;;;;;;;;;16.90;53.40;;;;;;5096036;28;20366;-76
2024/03/29 01:16:42;;;;;;;;;;;16.90;53.40;;;;;;5096465;28;19908;-75
2024/03/29 01:19:10;;;;;;;;;;;17.00;53.30;;;;;;5096281;28;19915;-76
2024/03/29 01:21:36;;;;;;;;;;;17.00;53.20;;;;;;5096011;28;19953;-76
2024/03/29 01:24:01;;;;;;;;;;;17.00;53.00;;;;;;5095669;28;20417;-76
2024/03/29 01:26:27;;;;;;;;;;;17.00;53.10;;;;;;5095635;28;19929;-76
2024/03/29 01:28:52;;;;;;;;;;;17.00;53.40;;;;;;5095760;28;20362;-76
2024/03/29 01:31:18;;;;;;;;;;;16.90;53.20;;;;;;5095628;28;20003;-76
2024/03/29 01:33:43;;;;;;;;;;;17.00;53.10;;;;;;5095586;28;20358;-76
2024/03/29 01:36:09;;;;;;;;;;;17.00;53.30;;;;;;5095587;28;19908;-76
2024/03/29 01:38:35;;;;;;;;;;;17.00;53.10;;;;;;5060539;28;20331;-76
2024/03/29 01:41:00;;;;;;;;;;;17.00;53.50;;;;;;5095380;28;19951;-75
2024/03/29 01:43:29;;;;;;;;;;;17.00;53.30;;;;;;5095245;28;20006;-76
2024/03/29 01:45:55;;;;;;;;;;;16.80;50.50;;;;;;5095393;28;19919;-76
2024/03/29 01:48:24;;;;;;;;;;;17.00;53.50;;;;;;5077151;28;20444;-76
2024/03/29 01:50:50;;;;;;;;;;;17.00;49.90;;;;;;5095095;28;19908;-76
2024/03/29 01:53:18;;;;;;;;;;;16.90;53.30;;;;;;5095154;28;19908;-76
2024/03/29 01:55:43;;;;;;;;;;;16.90;53.30;;;;;;5095066;28;19908;-76
2024/03/29 01:58:10;;;;;;;;;;;17.00;52.90;;;;;;5076867;28;19915;-76
2024/03/29 02:00:41;;;;;;;;;;;17.00;53.60;;;;;;5095003;28;19908;-76
2024/03/29 02:03:12;;;;;;;;;;;17.10;52.80;;;;;;5095205;28;19938;-76
2024/03/29 02:05:41;;;;;;;;;;;17.00;50.90;;;;;;5101714;28;19916;-76
2024/03/29 02:08:07;;;;;;;;;;;17.00;50.20;;;;;;5094144;28;19908;-76
2024/03/29 02:10:32;;;;;;;;;;;17.00;53.40;;;;;;5094858;28;20298;-76
2024/03/29 02:12:58;;;;;;;;;;;16.90;53.20;;;;;;5094689;28;19908;-76
2024/03/29 02:15:23;;;;;;;;;;;17.00;52.80;;;;;;5094869;28;19908;-76
2024/03/29 02:17:51;;;;;;;;;;;16.90;52.90;;;;;;5095000;28;20376;-73
2024/03/29 02:20:16;;;;;;;;;;;17.10;53.20;;;;;;5094551;28;19915;-72
2024/03/29 02:22:46;;;;;;;;;;;17.00;53.30;;;;;;5094501;28;20362;-72
2024/03/29 02:25:12;;;;;;;;;;;16.90;52.80;;;;;;5094744;28;19958;-73
2024/03/29 02:27:38;;;;;;;;;;;17.00;52.90;;;;;;5094523;28;19912;-73
2024/03/29 02:30:04;;;;;;;;;;;17.00;53.10;;;;;;5094489;28;20431;-73
2024/03/29 02:32:29;;;;;;;;;;;17.00;51.80;;;;;;5094942;28;19999;-72
2024/03/29 02:34:54;;;;;;;;;;;17.00;53.00;;;;;;5094683;28;19994;-72
2024/03/29 02:37:20;;;;;;;;;;;16.90;53.00;;;;;;5094354;28;19912;-73
2024/03/29 02:39:45;;;;;;;;;;;17.00;53.10;;;;;;5094580;28;20345;-72
2024/03/29 02:42:11;;;;;;;;;;;17.10;53.20;;;;;;5094352;28;19999;-72
2024/03/29 02:44:37;;;;;;;;;;;16.90;53.10;;;;;;5094188;28;19916;-73
2024/03/29 02:47:02;;;;;;;;;;;17.10;53.00;;;;;;5094069;28;19912;-72
2024/03/29 02:49:28;;;;;;;;;;;17.00;52.80;;;;;;5094121;28;19999;-73
2024/03/29 02:51:54;;;;;;;;;;;16.90;53.10;;;;;;5093992;28;19998;-73
2024/03/29 02:54:19;;;;;;;;;;;16.90;53.20;;;;;;5093858;28;19998;-73
2024/03/29 02:56:45;;;;;;;;;;;16.60;52.90;;;;;;5094031;28;19954;-73
2024/03/29 02:59:10;;;;;;;;;;;16.90;52.80;;;;;;5093800;28;19912;-73
2024/03/29 03:01:36;;;;;;;;;;;17.10;52.50;;;;;;5094481;28;20003;-74
2024/03/29 03:04:02;;;;;;;;;;;17.10;52.80;;;;;;5093525;28;19935;-72
2024/03/29 03:06:27;;;;;;;;;;;16.90;52.50;;;;;;5075618;28;19908;-73
2024/03/29 03:11:37;;;;;;;;;;;16.90;50.30;;;;;;5094055;28;19915;-73
2024/03/29 03:14:02;;;;;;;;;;;16.90;53.10;;;;;;5093707;28;19912;-76
2024/03/29 03:16:28;;;;;;;;;;;16.90;53.10;;;;;;5093870;28;19915;-76
2024/03/29 03:18:54;;;;;;;;;;;16.90;53.20;;;;;;5093552;28;19908;-76
2024/03/29 03:21:20;;;;;;;;;;;16.90;52.70;;;;;;5092498;28;20278;-76
2024/03/29 03:23:46;;;;;;;;;;;16.90;52.70;;;;;;5093856;28;19908;-76
2024/03/29 03:26:12;;;;;;;;;;;16.90;53.10;;;;;;5075044;28;19922;-76
2024/03/29 03:28:37;;;;;;;;;;;16.90;53.00;;;;;;5093877;28;19916;-76
2024/03/29 03:31:03;;;;;;;;;;;16.90;53.10;;;;;;5093157;28;19909;-76
2024/03/29 03:33:28;;;;;;;;;;;16.90;52.60;;;;;;5093200;28;19922;-76
2024/03/29 03:35:54;;;;;;;;;;;16.90;53.10;;;;;;5093184;28;19915;-75
2024/03/29 03:38:19;;;;;;;;;;;16.90;52.70;;;;;;5093084;28;19908;-76
2024/03/29 03:40:52;;;;;;;;;;;16.00;48.70;;;;;;5069684;28;19940;-76
2024/03/29 03:43:18;;;;;;;;;;;17.10;53.00;;;;;;5069624;28;20363;-76
2024/03/29 03:45:44;;;;;;;;;;;16.90;52.80;;;;;;5069523;28;19912;-76
2024/03/29 03:48:11;;;;;;;;;;;16.90;52.60;;;;;;5069609;28;19913;-76
2024/03/29 03:50:37;;;;;;;;;;;16.90;52.80;;;;;;5069631;28;19954;-76
2024/03/29 03:53:02;;;;;;;;;;;16.90;52.70;;;;;;5069383;28;19913;-76
2024/03/29 03:55:28;;;;;;;;;;;16.90;52.40;;;;;;5069442;28;19913;-76
2024/03/29 03:57:54;;;;;;;;;;;16.90;52.70;;;;;;5069839;28;19982;-76
2024/03/29 04:00:19;;;;;;;;;;;16.80;52.40;;;;;;5069186;28;19917;-76
2024/03/29 04:02:49;;;;;;;;;;;17.00;52.40;;;;;;5069131;28;19962;-76
2024/03/29 04:05:15;;;;;;;;;;;16.90;49.60;;;;;;5069535;28;19912;-76
2024/03/29 04:07:40;;;;;;;;;;;16.90;53.70;;;;;;5069010;28;19909;-76
2024/03/29 04:10:06;;;;;;;;;;;16.90;52.70;;;;;;5069177;28;20389;-76
2024/03/29 04:12:31;;;;;;;;;;;16.90;52.30;;;;;;5068970;28;19909;-77
2024/03/29 04:14:57;;;;;;;;;;;16.80;52.40;;;;;;5068939;28;19948;-76
2024/03/29 04:17:23;;;;;;;;;;;16.90;52.60;;;;;;5067517;28;20389;-76
2024/03/29 04:19:48;;;;;;;;;;;16.90;52.60;;;;;;5068740;28;20040;-76
2024/03/29 04:22:14;;;;;;;;;;;16.90;52.70;;;;;;5068735;28;19995;-76
2024/03/29 04:24:39;;;;;;;;;;;16.90;52.90;;;;;;5068732;28;19908;-76
2024/03/29 04:27:05;;;;;;;;;;;16.80;53.10;;;;;;5069145;28;19908;-76
2024/03/29 04:29:30;;;;;;;;;;;16.80;53.10;;;;;;5068752;28;19909;-75
2024/03/29 04:31:55;;;;;;;;;;;16.80;53.00;;;;;;5068558;28;19908;-76
2024/03/29 04:34:21;;;;;;;;;;;16.80;53.10;;;;;;5068625;28;20314;-76
2024/03/29 04:36:46;;;;;;;;;;;16.90;52.60;;;;;;5068536;28;19955;-76
2024/03/29 04:39:12;;;;;;;;;;;16.80;53.30;;;;;;5068209;28;19947;-76
2024/03/29 04:41:37;;;;;;;;;;;16.80;52.90;;;;;;5068431;28;19916;-76
2024/03/29 04:44:04;;;;;;;;;;;16.80;53.10;;;;;;5068279;28;19909;-76
2024/03/29 04:46:30;;;;;;;;;;;16.80;52.50;;;;;;5068259;28;19963;-76
2024/03/29 04:48:56;;;;;;;;;;;16.90;53.10;;;;;;5068229;28;19916;-76
2024/03/29 04:51:21;;;;;;;;;;;16.90;53.10;;;;;;5059682;28;19909;-76
2024/03/29 04:53:49;;;;;;;;;;;16.90;53.20;;;;;;5054951;28;19909;-76
2024/03/29 04:56:15;;;;;;;;;;;17.00;50.10;;;;;;5054876;28;19909;-76
2024/03/29 04:58:41;;;;;;;;;;;16.90;53.20;;;;;;5054660;28;20291;-76
2024/03/29 05:01:07;;;;;;;;;;;17.00;52.60;;;;;;5054565;28;19947;-76
2024/03/29 05:03:32;;;;;;;;;;;16.90;53.30;;;;;;5054682;28;20298;-76
2024/03/29 05:05:58;;;;;;;;;;;16.90;53.40;;;;;;5054776;28;19912;-77
2024/03/29 05:08:23;;;;;;;;;;;16.90;53.30;;;;;;5054662;28;19909;-76
2024/03/29 05:10:50;;;;;;;;;;;17.00;53.40;;;;;;5054496;28;19909;-76
2024/03/29 05:13:15;;;;;;;;;;;17.00;53.60;;;;;;5054544;28;19909;-76
2024/03/29 05:15:41;;;;;;;;;;;16.90;53.90;;;;;;5054451;28;19935;-76
2024/03/29 05:18:07;;;;;;;;;;;16.90;53.70;;;;;;5054166;28;19915;-76
2024/03/29 05:20:32;;;;;;;;;;;16.90;53.70;;;;;;5054265;28;19917;-76
2024/03/29 05:22:59;;;;;;;;;;;17.10;53.80;;;;;;5054998;28;20337;-73
2024/03/29 05:25:25;;;;;;;;;;;16.90;53.80;;;;;;5054540;28;19913;-73
2024/03/29 05:27:51;;;;;;;;;;;16.90;54.10;;;;;;5054522;28;19915;-73
2024/03/29 05:30:17;;;;;;;;;;;16.90;54.00;;;;;;5054153;28;19909;-72
2024/03/29 05:32:44;;;;;;;;;;;17.00;54.00;;;;;;5054269;28;19916;-73
2024/03/29 05:35:10;;;;;;;;;;;16.90;54.10;;;;;;5054328;28;19920;-73
2024/03/29 05:37:36;;;;;;;;;;;16.90;54.40;;;;;;5053708;28;19909;-72
2024/03/29 05:40:04;;;;;;;;;;;16.90;54.60;;;;;;5053512;28;19921;-73
2024/03/29 05:42:30;;;;;;;;;;;17.00;54.70;;;;;;5053736;28;19916;-72
2024/03/29 05:44:56;;;;;;;;;;;16.90;54.60;;;;;;5053754;28;19999;-73
2024/03/29 05:47:21;;;;;;;;;;;17.00;54.50;;;;;;5053726;28;19960;-73
2024/03/29 05:49:47;;;;;;;;;;;17.30;54.70;;;;;;5053698;28;19975;-72
2024/03/29 05:52:13;;;;;;;;;;;16.90;54.70;;;;;;5054144;28;19932;-73
2024/03/29 05:54:42;;;;;;;;;;;17.00;54.60;;;;;;5053450;28;19940;-73
2024/03/29 05:57:08;;;;;;;;;;;16.90;51.40;;;;;;5053554;28;19909;-73
2024/03/29 05:59:34;;;;;;;;;;;17.00;55.00;;;;;;5053460;28;19921;-72
2024/03/29 06:01:59;;;;;;;;;;;17.00;54.50;;;;;;5052812;28;19919;-72
2024/03/29 06:04:32;;;;;;;;;;;17.00;54.80;;;;;;5053076;28;19909;-72
2024/03/29 06:06:58;;;;;;;;;;;17.00;54.90;;;;;;5060090;28;19909;-73
2024/03/29 06:09:24;;;;;;;;;;;17.00;55.00;;;;;;5053264;28;19916;-73
2024/03/29 06:11:49;;;;;;;;;;;17.00;55.30;;;;;;5053199;28;19909;-72
2024/03/29 06:19:43;;;;;;;;;;;17.10;52.10;;;;;;5053635;28;19924;-73
2024/03/29 06:22:09;;;;;;;;;;;17.00;54.70;;;;;;5052985;28;19909;-72
2024/03/29 06:24:34;;;;;;;;;;;17.00;54.60;;;;;;5052907;28;19913;-72
2024/03/29 06:27:00;;;;;;;;;;;17.00;54.70;;;;;;5052940;28;19916;-73
2024/03/29 06:29:26;;;;;;;;;;;17.00;54.70;;;;;;5052823;28;20406;-75
2024/03/29 06:31:51;;;;;;;;;;;17.00;54.70;;;;;;5052907;28;19909;-75
2024/03/29 06:34:17;;;;;;;;;;;17.00;54.90;;;;;;5052820;28;19963;-74
2024/03/29 06:36:42;;;;;;;;;;;17.00;54.80;;;;;;5052849;28;19954;-73
2024/03/29 06:39:08;;;;;;;;;;;17.10;55.10;;;;;;5052371;28;20023;-74
2024/03/29 06:41:34;;;;;;;;;;;17.00;54.60;;;;;;5052718;28;19912;-75
2024/03/29 06:43:59;;;;;;;;;;;17.00;55.00;;;;;;5052589;28;19932;-73
2024/03/29 06:46:25;;;;;;;;;;;17.00;55.00;;;;;;5052494;28;19951;-74
2024/03/29 06:48:51;;;;;;;;;;;17.00;54.50;;;;;;5052922;28;19908;-74
2024/03/29 06:51:16;;;;;;;;;;;17.00;54.90;;;;;;5052439;28;19915;-74
2024/03/29 06:53:42;;;;;;;;;;;17.10;54.90;;;;;;5052597;28;19916;-73
2024/03/29 06:56:07;;;;;;;;;;;17.00;54.90;;;;;;5052506;28;20378;-73
2024/03/29 06:58:33;;;;;;;;;;;17.30;54.90;;;;;;5052503;28;19909;-76
2024/03/29 07:00:58;;;;;;;;;;;17.00;55.00;;;;;;5052682;28;20430;-77
2024/03/29 07:03:24;;;;;;;;;;;17.10;54.40;;;;;;5052219;28;19955;-76
2024/03/29 07:05:49;;;;;;;;;;;17.10;55.30;;;;;;5052309;28;19909;-77
2024/03/29 07:08:15;;;;;;;;;;;17.10;54.90;;;;;;5052084;28;19959;-76
2024/03/29 07:10:41;;;;;;;;;;;17.00;55.10;;;;;;5052231;28;19959;-76
2024/03/29 07:13:07;;;;;;;;;;;17.00;54.90;;;;;;5052138;28;20275;-76
2024/03/29 07:15:33;;;;;;;;;;;16.90;55.00;;;;;;5050663;28;19912;-76
2024/03/29 07:17:59;;;;;;;;;;;17.10;54.40;;;;;;5052556;28;20008;-78
2024/03/29 07:20:25;;;;;;;;;;;17.00;54.90;;;;;;5053420;28;19942;-76
2024/03/29 07:22:51;;;;;;;;;;;17.00;55.50;;;;;;5050754;28;19909;-76
2024/03/29 07:25:16;;;;;;;;;;;17.00;54.70;;;;;;5052011;28;19955;-73
2024/03/29 07:27:42;;;;;;;;;;;17.00;54.90;;;;;;5051878;28;19954;-73
2024/03/29 07:30:08;;;;;;;;;;;17.00;54.80;;;;;;5051906;28;19909;-74
2024/03/29 07:32:33;;;;;;;;;;;17.20;54.20;;;;;;5052082;28;19909;-73
2024/03/29 07:34:59;;;;;;;;;;;16.90;54.90;;;;;;5051847;28;19909;-73
2024/03/29 07:37:25;;;;;;;;;;;17.00;54.70;;;;;;5052006;28;19908;-74
2024/03/29 07:39:51;;;;;;;;;;;17.00;55.20;;;;;;5051590;28;20468;-76
2024/03/29 07:42:16;;;;;;;;;;;17.30;55.30;;;;;;5051860;28;19908;-71
2024/03/29 07:44:45;;;;;;;;;;;17.00;55.10;;;;;;5052192;28;19909;-72
2024/03/29 07:47:13;;;;;;;;;;;17.00;52.10;;;;;;5054051;28;19908;-72
2024/03/29 07:49:38;;;;;;;;;;;17.10;55.20;;;;;;5051986;28;19978;-70
2024/03/29 07:52:05;;;;;;;;;;;17.00;55.30;;;;;;5051687;28;19912;-71
2024/03/29 07:54:31;;;;;;;;;;;17.00;54.70;;;;;;5051711;28;19916;-71
2024/03/29 07:56:57;;;;;;;;;;;17.00;55.40;;;;;;5051759;28;19916;-71
2024/03/29 07:59:22;;;;;;;;;;;17.00;55.60;;;;;;5051618;28;20299;-71
2024/03/29 08:01:48;;;;;;;;;;;17.10;54.80;;;;;;5052864;28;19960;-70
2024/03/29 08:04:13;;;;;;;;;;;17.00;55.50;;;;;;5051768;28;19913;-72
2024/03/29 08:06:39;;;;;;;;;;;17.00;55.50;;;;;;5051310;28;20377;-72
2024/03/29 08:09:04;;;;;;;;;;;17.00;55.50;;;;;;5051574;28;19916;-72
2024/03/29 08:11:30;;;;;;;;;;;17.00;55.60;;;;;;5051378;28;19909;-72
2024/03/29 08:13:55;;;;;;;;;;;17.20;55.40;;;;;;5051958;28;19909;-73
2024/03/29 08:16:21;;;;;;;;;;;17.30;55.70;;;;;;5051431;28;19922;-72
2024/03/29 08:18:49;;;;;;;;;;;17.00;55.80;;;;;;5051250;28;20117;-72
2024/03/29 08:21:14;;;;;;;;;;;17.10;55.50;;;;;;5051387;28;19916;-72
2024/03/29 08:23:41;;;;;;;;;;;17.00;55.90;;;;;;5051421;28;19935;-72
2024/03/29 08:26:07;;;;;;;;;;;17.20;56.00;;;;;;5052808;28;19909;-72
2024/03/29 08:28:33;;;;;;;;;;;17.20;55.40;;;;;;5053813;28;19909;-72
2024/03/29 08:30:59;;;;;;;;;;;17.10;55.80;;;;;;5055057;28;19943;-72
2024/03/29 08:33:25;;;;;;;;;;;17.10;55.80;;;;;;5055134;28;19920;-72
2024/03/29 08:35:50;;;;;;;;;;;17.00;55.80;;;;;;5054754;28;19913;-72
2024/03/29 08:38:16;;;;;;;;;;;17.00;56.00;;;;;;5055025;28;19909;-72
2024/03/29 08:40:43;;;;;;;;;;;17.10;56.20;;;;;;5054748;28;20362;-72
2024/03/29 08:43:09;;;;;;;;;;;17.10;56.20;;;;;;5054945;28;19909;-72
2024/03/29 08:45:40;;;;;;;;;;;17.10;56.00;;;;;;5054997;28;19986;-72
2024/03/29 08:48:06;;;;;;;;;;;17.10;56.00;;;;;;5061650;28;20015;-72
2024/03/29 08:50:31;;;;;;;;;;;17.10;55.20;;;;;;5054779;28;20420;-72
2024/03/29 08:52:57;;;;;;;;;;;17.20;56.20;;;;;;5054689;28;19909;-72
2024/03/29 08:55:22;;;;;;;;;;;17.20;56.20;;;;;;5054593;28;20022;-72
2024/03/29 08:57:48;;;;;;;;;;;17.20;56.10;;;;;;5054642;28;20411;-72
2024/03/29 09:00:13;;;;;;;;;;;17.30;55.70;;;;;;5054955;28;19920;-72
2024/03/29 09:02:39;;;;;;;;;;;17.30;55.60;;;;;;5054664;28;20259;-72
2024/03/29 09:05:05;;;;;;;;;;;17.30;56.10;;;;;;5054242;28;19909;-72
2024/03/29 09:07:31;;;;;;;;;;;17.20;55.50;;;;;;5054627;28;19909;-72
2024/03/29 09:09:57;;;;;;;;;;;17.20;56.40;;;;;;5054390;28;20310;-72
2024/03/29 09:12:22;;;;;;;;;;;17.20;56.10;;;;;;5054382;28;20003;-72
2024/03/29 09:14:48;;;;;;;;;;;17.20;56.10;;;;;;5054450;28;20323;-72
2024/03/29 09:17:13;;;;;;;;;;;17.50;56.20;;;;;;5054495;28;19917;-72
2024/03/29 09:19:39;;;;;;;;;;;17.30;56.20;;;;;;5053978;28;20495;-72
2024/03/29 09:22:05;;;;;;;;;;;17.20;56.20;;;;;;5054057;28;19962;-72
2024/03/29 09:24:31;;;;;;;;;;;17.20;56.00;;;;;;5054108;28;19923;-72
2024/03/29 09:26:57;;;;;;;;;;;17.30;56.00;;;;;;5054281;28;20256;-72
2024/03/29 09:29:22;;;;;;;;;;;17.30;55.90;;;;;;5054476;28;19912;-72
2024/03/29 09:31:48;;;;;;;;;;;17.30;56.30;;;;;;5053966;28;19909;-72
2024/03/29 09:34:14;;;;;;;;;;;17.30;56.60;;;;;;5053943;28;20280;-72
2024/03/29 09:36:40;;;;;;;;;;;17.30;56.10;;;;;;5053687;28;19916;-72
2024/03/29 09:39:05;;;;;;;;;;;17.30;56.30;;;;;;5053455;28;19936;-72
2024/03/29 09:41:34;;;;;;;;;;;17.30;56.20;;;;;;5053784;28;19913;-72
2024/03/29 09:44:02;;;;;;;;;;;17.30;56.30;;;;;;5055463;28;19909;-74
2024/03/29 09:46:29;;;;;;;;;;;17.30;56.30;;;;;;5054734;28;19940;-72
2024/03/29 09:48:55;;;;;;;;;;;17.30;56.40;;;;;;5053608;28;20366;-70
2024/03/29 09:51:20;;;;;;;;;;;17.30;56.20;;;;;;5053551;28;19912;-72
2024/03/29 09:53:47;;;;;;;;;;;17.30;56.20;;;;;;5053456;28;20020;-71
2024/03/29 09:56:12;;;;;;;;;;;17.30;56.20;;;;;;5053510;28;19913;-72
2024/03/29 09:58:38;;;;;;;;;;;17.30;56.30;;;;;;5053450;28;19908;-73
2024/03/29 10:01:04;;;;;;;;;;;17.30;56.30;;;;;;5053578;28;19908;-71
2024/03/29 10:03:31;;;;;;;;;;;17.50;56.10;;;;;;5053352;28;19909;-73
2024/03/29 10:05:58;;;;;;;;;;;17.40;56.30;;;;;;5053583;28;20312;-73
2024/03/29 10:08:25;;;;;;;;;;;17.50;56.30;;;;;;5053322;28;19909;-74
2024/03/29 10:10:51;;;;;;;;;;;17.50;56.50;;;;;;5053320;28;19909;-75
2024/03/29 10:13:17;;;;;;;;;;;17.60;56.10;;;;;;5053278;28;19909;-73
2024/03/29 10:15:47;;;;;;;;;;;17.60;56.20;;;;;;5053724;28;19915;-73
2024/03/29 10:18:12;;;;;;;;;;;17.70;56.20;;;;;;5051592;28;20371;-76
2024/03/29 10:20:38;;;;;;;;;;;17.70;56.20;;;;;;5053034;28;19916;-75
2024/03/29 10:23:03;;;;;;;;;;;17.70;56.10;;;;;;5052999;28;19966;-75
2024/03/29 10:25:33;;;;;;;;;;;17.20;55.40;;;;;;5053322;28;19932;-75
2024/03/29 10:28:01;;;;;;;;;;;17.80;53.00;;;;;;5052977;28;19916;-75
2024/03/29 10:30:27;;;;;;;;;;;17.80;55.80;;;;;;5053383;28;19909;-81
2024/03/29 10:32:53;;;;;;;;;;;17.20;55.70;;;;;;5053165;28;19978;-81
2024/03/29 10:35:19;;;;;;;;;;;17.90;56.00;;;;;;5053243;28;19916;-78
2024/03/29 10:37:45;;;;;;;;;;;17.90;55.90;;;;;;5052703;28;19915;-77
2024/03/29 10:40:11;;;;;;;;;;;18.00;56.10;;;;;;5050938;28;19921;-77
2024/03/29 10:42:37;;;;;;;;;;;18.00;55.20;;;;;;5052717;28;19965;-76
2024/03/29 10:45:03;;;;;;;;;;;18.10;56.30;;;;;;5053650;28;20003;-75
2024/03/29 10:47:29;;;;;;;;;;;18.10;56.00;;;;;;5052572;28;19909;-76
2024/03/29 10:49:56;;;;;;;;;;;18.10;56.50;;;;;;5051892;28;20059;-76
2024/03/29 10:52:22;;;;;;;;;;;18.30;56.20;;;;;;5052751;28;19916;-75
2024/03/29 10:54:47;;;;;;;;;;;18.20;55.90;;;;;;5050969;28;19908;-76
2024/03/29 10:57:19;;;;;;;;;;;18.40;55.60;;;;;;5052492;28;20007;-76
2024/03/29 10:59:51;;;;;;;;;;;18.50;52.60;;;;;;5052352;28;19960;-76
2024/03/29 11:02:26;;;;;;;;;;;18.70;54.80;;;;;;5052027;28;19951;-76
2024/03/29 11:04:52;;;;;;;;;;;18.60;55.40;;;;;;5050997;28;20355;-75
2024/03/29 11:07:21;;;;;;;;;;;18.60;55.80;;;;;;5052174;28;19909;-78
2024/03/29 11:09:49;;;;;;;;;;;18.60;55.30;;;;;;5050884;28;20433;-76
2024/03/29 11:12:15;;;;;;;;;;;18.60;55.40;;;;;;5050909;28;19919;-78
2024/03/29 11:14:42;;;;;;;;;;;18.60;55.60;;;;;;5051364;28;20003;-75
2024/03/29 11:17:09;;;;;;;;;;;18.60;55.60;;;;;;5052213;28;19917;-77
2024/03/29 11:19:35;;;;;;;;;;;18.60;55.50;;;;;;5051892;28;19924;-75
2024/03/29 11:22:01;;;;;;;;;;;18.80;55.60;;;;;;5052057;28;19931;-75
2024/03/29 11:24:27;;;;;;;;;;;18.90;55.10;;;;;;5052331;28;19915;-72
2024/03/29 11:26:53;;;;;;;;;;;19.00;55.00;;;;;;5052088;28;19915;-73
2024/03/29 11:29:22;;;;;;;;;;;19.10;55.00;;;;;;5050504;28;20356;-75
2024/03/29 11:31:51;;;;;;;;;;;19.30;51.70;;;;;;5050639;28;19948;-71
2024/03/29 11:34:19;;;;;;;;;;;19.40;54.30;;;;;;5051741;28;19961;-71
2024/03/29 11:36:45;;;;;;;;;;;19.50;51.30;;;;;;5051928;28;19913;-70
2024/03/29 11:39:20;;;;;;;;;;;19.50;53.90;;;;;;5051511;28;20386;-71
2024/03/29 11:41:47;;;;;;;;;;;19.60;53.70;;;;;;5053121;28;19916;-72
2024/03/29 11:44:13;;;;;;;;;;;19.60;53.60;;;;;;5051799;28;19912;-73
2024/03/29 11:46:39;;;;;;;;;;;19.60;53.60;;;;;;5054022;28;19935;-72
2024/03/29 11:49:06;;;;;;;;;;;19.70;53.30;;;;;;5052088;28;19909;-72
2024/03/29 11:51:31;;;;;;;;;;;19.30;53.30;;;;;;5051864;28;19909;-72
2024/03/29 11:53:59;;;;;;;;;;;19.80;53.70;;;;;;5051864;28;19908;-72
2024/03/29 11:56:25;;;;;;;;;;;19.80;53.10;;;;;;5051888;28;19916;-72
2024/03/29 11:58:51;;;;;;;;;;;19.90;53.30;;;;;;5051513;28;19909;-72
2024/03/29 12:01:18;;;;;;;;;;;19.90;53.20;;;;;;5053134;28;19999;-72
2024/03/29 12:03:44;;;;;;;;;;;19.80;53.90;;;;;;5055969;28;19909;-73
2024/03/29 12:06:10;;;;;;;;;;;19.70;53.70;;;;;;5055948;28;19909;-73
2024/03/29 12:08:38;;;;;;;;;;;19.70;54.00;;;;;;5055824;28;20286;-73
2024/03/29 12:11:05;;;;;;;;;;;19.70;54.20;;;;;;5056366;28;20280;-72
2024/03/29 12:13:31;;;;;;;;;;;19.70;54.60;;;;;;5055513;28;19909;-72
2024/03/29 12:15:57;;;;;;;;;;;19.60;54.60;;;;;;5055394;28;20351;-72
2024/03/29 12:18:25;;;;;;;;;;;19.60;55.00;;;;;;5055334;28;19908;-72
2024/03/29 12:20:52;;;;;;;;;;;19.50;55.10;;;;;;5055573;28;19916;-72
2024/03/29 12:23:18;;;;;;;;;;;19.50;55.20;;;;;;5055614;28;20245;-72
2024/03/29 12:25:45;;;;;;;;;;;19.50;55.10;;;;;;5055199;28;19913;-71
2024/03/29 12:28:11;;;;;;;;;;;19.50;55.10;;;;;;5055440;28;19913;-72
2024/03/29 12:30:39;;;;;;;;;;;19.50;55.50;;;;;;5055126;28;19913;-72
2024/03/29 12:33:10;;;;;;;;;;;19.50;55.30;;;;;;5055070;28;19991;-72
2024/03/29 12:35:36;;;;;;;;;;;19.50;52.50;;;;;;5055047;28;19962;-72
2024/03/29 12:38:03;;;;;;;;;;;19.60;55.00;;;;;;5055551;28;19909;-72
2024/03/29 12:40:29;;;;;;;;;;;19.50;55.20;;;;;;5054794;28;20003;-72
2024/03/29 12:42:55;;;;;;;;;;;19.50;55.40;;;;;;5054953;28;19915;-72
2024/03/29 12:45:21;;;;;;;;;;;19.50;55.60;;;;;;5054928;28;19909;-72
2024/03/29 12:47:47;;;;;;;;;;;19.50;55.40;;;;;;5054709;28;20425;-72
2024/03/29 12:50:14;;;;;;;;;;;19.50;55.60;;;;;;5054878;28;19909;-73
2024/03/29 12:52:40;;;;;;;;;;;19.60;55.40;;;;;;5054755;28;19909;-72
2024/03/29 12:55:07;;;;;;;;;;;19.70;55.30;;;;;;5054606;28;20047;-72
2024/03/29 12:57:34;;;;;;;;;;;19.70;54.50;;;;;;5054839;28;20264;-72
2024/03/29 12:59:59;;;;;;;;;;;19.80;55.00;;;;;;5054414;28;19917;-73
2024/03/29 13:02:24;;;;;;;;;;;19.90;53.70;;;;;;5054481;28;19909;-72
2024/03/29 13:04:51;;;;;;;;;;;19.90;54.30;;;;;;5054423;28;19908;-72
2024/03/29 13:07:16;;;;;;;;;;;20.00;53.60;;;;;;5054839;28;19908;-72
2024/03/29 13:09:42;;;;;;;;;;;19.90;54.20;;;;;;5054344;28;19962;-72
2024/03/29 13:12:07;;;;;;;;;;;20.00;54.70;;;;;;5053839;28;20533;-72
2024/03/29 13:14:33;;;;;;;;;;;20.00;54.10;;;;;;5054238;28;19954;-72
2024/03/29 13:16:59;;;;;;;;;;;19.90;54.10;;;;;;5054204;28;19909;-71
2024/03/29 13:19:25;;;;;;;;;;;20.00;54.30;;;;;;5054256;28;19921;-72
2024/03/29 13:21:50;;;;;;;;;;;19.90;54.70;;;;;;5054150;28;19952;-72
2024/03/29 13:24:16;;;;;;;;;;;20.00;54.60;;;;;;5054099;28;19963;-72
2024/03/29 13:26:41;;;;;;;;;;;20.00;54.80;;;;;;5054236;28;19971;-71
2024/03/29 13:29:07;;;;;;;;;;;19.90;54.50;;;;;;5053960;28;19931;-72
2024/03/29 13:31:33;;;;;;;;;;;19.90;54.50;;;;;;5054107;28;20294;-72
2024/03/29 13:34:11;;;;;;;;;;;19.90;54.50;;;;;;5053972;28;20406;-72
2024/03/29 13:36:40;;;;;;;;;;;20.00;53.00;;;;;;5054598;28;19909;-71
2024/03/29 13:39:08;;;;;;;;;;;20.00;51.40;;;;;;5053620;28;20349;-73
2024/03/29 13:41:36;;;;;;;;;;;20.10;54.40;;;;;;5053776;28;20394;-72
2024/03/29 13:44:05;;;;;;;;;;;20.10;52.50;;;;;;5053718;28;20013;-72
2024/03/29 13:46:34;;;;;;;;;;;20.00;54.20;;;;;;5053701;28;20355;-72
2024/03/29 13:49:00;;;;;;;;;;;20.00;51.60;;;;;;5053630;28;19909;-72
2024/03/29 13:51:26;;;;;;;;;;;20.00;54.00;;;;;;5053851;28;20042;-72
2024/03/29 13:53:54;;;;;;;;;;;20.00;54.10;;;;;;5053536;28;19982;-72
2024/03/29 13:56:19;;;;;;;;;;;19.90;54.20;;;;;;5053564;28;19916;-71
2024/03/29 13:58:45;;;;;;;;;;;19.90;54.40;;;;;;5053407;28;20363;-72
2024/03/29 14:01:10;;;;;;;;;;;19.90;53.90;;;;;;5053252;28;20451;-72
2024/03/29 14:03:36;;;;;;;;;;;19.90;53.80;;;;;;5053863;28;19909;-72
2024/03/29 14:06:01;;;;;;;;;;;19.90;54.30;;;;;;5053228;28;19986;-72
2024/03/29 14:08:27;;;;;;;;;;;19.90;54.50;;;;;;5053363;28;19909;-72
2024/03/29 14:10:53;;;;;;;;;;;19.90;54.20;;;;;;5053348;28;19916;-72
2024/03/29 14:13:19;;;;;;;;;;;19.50;54.10;;;;;;5053172;28;19909;-72
2024/03/29 14:15:44;;;;;;;;;;;19.90;54.20;;;;;;5053175;28;19935;-72
2024/03/29 14:18:10;;;;;;;;;;;19.90;54.10;;;;;;5052974;28;20320;-72